sensor_id;sensor_type;location;lat;lon;timestamp;P1;durP1;ratioP1;P2;durP2;ratioP2
41885;SDS011;27567;43.084;25.616;2022-10-23T00:01:53;10.57;;;5.35;;
41885;SDS011;27567;43.084;25.616;2022-10-23T00:04:37;21.38;;;5.85;;
41885;SDS011;27567;43.084;25.616;2022-10-23T00:07:21;14.55;;;6.13;;
41885;SDS011;27567;43.084;25.616;2022-10-23T00:10:04;10.57;;;4.88;;
41885;SDS011;27567;43.084;25.616;2022-10-23T00:12:49;12.15;;;6.40;;
41885;SDS011;27567;43.084;25.616;2022-10-23T00:15:34;11.88;;;5.95;;
41885;SDS011;27567;43.084;25.616;2022-10-23T00:18:19;14.98;;;6.85;;
41885;SDS011;27567;43.084;25.616;2022-10-23T00:21:04;17.27;;;5.88;;
41885;SDS011;27567;43.084;25.616;2022-10-23T00:23:49;12.07;;;6.03;;
41885;SDS011;27567;43.084;25.616;2022-10-23T00:26:33;14.77;;;6.15;;
41885;SDS011;27567;43.084;25.616;2022-10-23T00:29:17;14.10;;;5.63;;
41885;SDS011;27567;43.084;25.616;2022-10-23T00:32:01;13.63;;;6.20;;
41885;SDS011;27567;43.084;25.616;2022-10-23T00:34:45;15.10;;;6.32;;
41885;SDS011;27567;43.084;25.616;2022-10-23T00:37:29;11.65;;;5.43;;
41885;SDS011;27567;43.084;25.616;2022-10-23T00:40:13;14.07;;;5.47;;
41885;SDS011;27567;43.084;25.616;2022-10-23T00:42:57;19.08;;;5.75;;
41885;SDS011;27567;43.084;25.616;2022-10-23T00:45:41;10.68;;;5.45;;
41885;SDS011;27567;43.084;25.616;2022-10-23T00:48:25;13.68;;;5.30;;
41885;SDS011;27567;43.084;25.616;2022-10-23T00:51:10;13.32;;;5.40;;
41885;SDS011;27567;43.084;25.616;2022-10-23T00:53:56;15.70;;;4.93;;
41885;SDS011;27567;43.084;25.616;2022-10-23T00:56:41;8.88;;;5.22;;
41885;SDS011;27567;43.084;25.616;2022-10-23T00:59:27;12.55;;;4.90;;
41885;SDS011;27567;43.084;25.616;2022-10-23T01:02:12;16.23;;;5.22;;
41885;SDS011;27567;43.084;25.616;2022-10-23T01:04:57;13.00;;;4.85;;
41885;SDS011;27567;43.084;25.616;2022-10-23T01:13:37;12.05;;;4.97;;
41885;SDS011;27567;43.084;25.616;2022-10-23T01:16:55;14.13;;;5.35;;
41885;SDS011;27567;43.084;25.616;2022-10-23T01:29:04;12.77;;;5.00;;
41885;SDS011;27567;43.084;25.616;2022-10-23T01:31:59;11.15;;;5.65;;
41885;SDS011;27567;43.084;25.616;2022-10-23T01:34:51;13.45;;;5.63;;
41885;SDS011;27567;43.084;25.616;2022-10-23T01:37:53;12.27;;;5.78;;
41885;SDS011;27567;43.084;25.616;2022-10-23T01:43:53;12.23;;;6.22;;
41885;SDS011;27567;43.084;25.616;2022-10-23T01:46:40;10.00;;;6.20;;
41885;SDS011;27567;43.084;25.616;2022-10-23T01:49:25;10.80;;;5.78;;
41885;SDS011;27567;43.084;25.616;2022-10-23T01:52:10;12.68;;;5.95;;
41885;SDS011;27567;43.084;25.616;2022-10-23T01:54:58;11.13;;;5.50;;
41885;SDS011;27567;43.084;25.616;2022-10-23T01:57:43;13.70;;;5.53;;
41885;SDS011;27567;43.084;25.616;2022-10-23T02:00:30;15.15;;;5.35;;
41885;SDS011;27567;43.084;25.616;2022-10-23T02:03:14;10.55;;;5.97;;
41885;SDS011;27567;43.084;25.616;2022-10-23T02:06:00;13.65;;;6.05;;
41885;SDS011;27567;43.084;25.616;2022-10-23T02:08:44;9.90;;;5.25;;
41885;SDS011;27567;43.084;25.616;2022-10-23T02:11:28;10.15;;;4.90;;
41885;SDS011;27567;43.084;25.616;2022-10-23T02:14:16;19.23;;;4.45;;
41885;SDS011;27567;43.084;25.616;2022-10-23T02:23:30;11.90;;;4.93;;
41885;SDS011;27567;43.084;25.616;2022-10-23T02:29:44;14.95;;;4.78;;
41885;SDS011;27567;43.084;25.616;2022-10-23T02:32:34;19.52;;;5.60;;
41885;SDS011;27567;43.084;25.616;2022-10-23T02:35:22;11.90;;;4.85;;
41885;SDS011;27567;43.084;25.616;2022-10-23T02:44:24;11.98;;;3.92;;
41885;SDS011;27567;43.084;25.616;2022-10-23T02:59:01;12.50;;;3.58;;
41885;SDS011;27567;43.084;25.616;2022-10-23T03:01:57;12.85;;;3.47;;
41885;SDS011;27567;43.084;25.616;2022-10-23T03:04:46;11.60;;;4.75;;
41885;SDS011;27567;43.084;25.616;2022-10-23T03:07:32;9.80;;;5.32;;
41885;SDS011;27567;43.084;25.616;2022-10-23T03:10:17;15.30;;;5.47;;
41885;SDS011;27567;43.084;25.616;2022-10-23T03:13:01;21.40;;;5.25;;
41885;SDS011;27567;43.084;25.616;2022-10-23T03:15:46;16.17;;;4.47;;
41885;SDS011;27567;43.084;25.616;2022-10-23T03:18:30;9.57;;;4.75;;
41885;SDS011;27567;43.084;25.616;2022-10-23T03:21:13;12.30;;;4.45;;
41885;SDS011;27567;43.084;25.616;2022-10-23T03:23:57;12.63;;;4.50;;
41885;SDS011;27567;43.084;25.616;2022-10-23T03:26:41;9.13;;;3.88;;
41885;SDS011;27567;43.084;25.616;2022-10-23T03:29:26;11.52;;;4.32;;
41885;SDS011;27567;43.084;25.616;2022-10-23T03:32:09;12.07;;;4.28;;
41885;SDS011;27567;43.084;25.616;2022-10-23T03:34:53;21.67;;;5.03;;
41885;SDS011;27567;43.084;25.616;2022-10-23T03:37:37;13.68;;;4.70;;
41885;SDS011;27567;43.084;25.616;2022-10-23T03:40:21;16.67;;;4.70;;
41885;SDS011;27567;43.084;25.616;2022-10-23T03:43:06;9.70;;;5.13;;
41885;SDS011;27567;43.084;25.616;2022-10-23T03:45:50;15.48;;;5.07;;
41885;SDS011;27567;43.084;25.616;2022-10-23T03:48:34;9.43;;;4.47;;
41885;SDS011;27567;43.084;25.616;2022-10-23T03:51:21;19.02;;;5.18;;
41885;SDS011;27567;43.084;25.616;2022-10-23T03:54:05;17.27;;;5.28;;
41885;SDS011;27567;43.084;25.616;2022-10-23T03:56:50;14.55;;;5.00;;
41885;SDS011;27567;43.084;25.616;2022-10-23T03:59:34;18.42;;;5.05;;
41885;SDS011;27567;43.084;25.616;2022-10-23T04:02:18;8.88;;;5.15;;
41885;SDS011;27567;43.084;25.616;2022-10-23T04:05:02;12.88;;;5.75;;
41885;SDS011;27567;43.084;25.616;2022-10-23T04:07:46;14.15;;;5.53;;
41885;SDS011;27567;43.084;25.616;2022-10-23T04:10:30;10.60;;;5.05;;
41885;SDS011;27567;43.084;25.616;2022-10-23T04:13:14;16.27;;;5.78;;
41885;SDS011;27567;43.084;25.616;2022-10-23T04:15:58;14.77;;;5.45;;
41885;SDS011;27567;43.084;25.616;2022-10-23T04:18:42;18.20;;;5.63;;
41885;SDS011;27567;43.084;25.616;2022-10-23T04:21:26;14.38;;;5.30;;
41885;SDS011;27567;43.084;25.616;2022-10-23T04:24:10;8.75;;;5.03;;
41885;SDS011;27567;43.084;25.616;2022-10-23T04:26:54;12.15;;;5.43;;
41885;SDS011;27567;43.084;25.616;2022-10-23T04:29:38;11.85;;;5.95;;
41885;SDS011;27567;43.084;25.616;2022-10-23T04:32:22;15.30;;;6.28;;
41885;SDS011;27567;43.084;25.616;2022-10-23T04:35:06;12.77;;;5.30;;
41885;SDS011;27567;43.084;25.616;2022-10-23T04:37:50;9.85;;;5.05;;
41885;SDS011;27567;43.084;25.616;2022-10-23T04:40:34;13.07;;;5.28;;
41885;SDS011;27567;43.084;25.616;2022-10-23T04:43:18;12.32;;;5.43;;
41885;SDS011;27567;43.084;25.616;2022-10-23T04:46:02;11.10;;;5.53;;
41885;SDS011;27567;43.084;25.616;2022-10-23T04:48:47;12.20;;;5.72;;
41885;SDS011;27567;43.084;25.616;2022-10-23T04:51:30;19.60;;;5.90;;
41885;SDS011;27567;43.084;25.616;2022-10-23T04:54:15;13.57;;;6.43;;
41885;SDS011;27567;43.084;25.616;2022-10-23T04:56:58;19.27;;;7.78;;
41885;SDS011;27567;43.084;25.616;2022-10-23T04:59:42;16.70;;;6.40;;
41885;SDS011;27567;43.084;25.616;2022-10-23T05:02:26;16.13;;;7.35;;
41885;SDS011;27567;43.084;25.616;2022-10-23T05:05:10;13.70;;;6.90;;
41885;SDS011;27567;43.084;25.616;2022-10-23T05:07:54;12.68;;;6.28;;
41885;SDS011;27567;43.084;25.616;2022-10-23T05:10:38;13.98;;;6.45;;
41885;SDS011;27567;43.084;25.616;2022-10-23T05:13:24;12.05;;;6.60;;
41885;SDS011;27567;43.084;25.616;2022-10-23T05:16:08;17.00;;;5.20;;
41885;SDS011;27567;43.084;25.616;2022-10-23T05:18:52;19.13;;;5.90;;
41885;SDS011;27567;43.084;25.616;2022-10-23T05:21:37;13.52;;;5.78;;
41885;SDS011;27567;43.084;25.616;2022-10-23T05:24:23;13.07;;;5.25;;
41885;SDS011;27567;43.084;25.616;2022-10-23T05:27:09;13.23;;;6.07;;
41885;SDS011;27567;43.084;25.616;2022-10-23T05:29:53;16.88;;;6.55;;
41885;SDS011;27567;43.084;25.616;2022-10-23T05:32:37;13.80;;;5.32;;
41885;SDS011;27567;43.084;25.616;2022-10-23T05:35:25;12.30;;;5.50;;
41885;SDS011;27567;43.084;25.616;2022-10-23T05:38:09;12.70;;;5.38;;
41885;SDS011;27567;43.084;25.616;2022-10-23T05:40:54;17.45;;;6.03;;
41885;SDS011;27567;43.084;25.616;2022-10-23T05:43:38;15.23;;;6.07;;
41885;SDS011;27567;43.084;25.616;2022-10-23T05:46:22;9.82;;;5.78;;
41885;SDS011;27567;43.084;25.616;2022-10-23T05:49:06;9.48;;;5.60;;
41885;SDS011;27567;43.084;25.616;2022-10-23T05:51:50;12.30;;;5.55;;
41885;SDS011;27567;43.084;25.616;2022-10-23T05:54:35;18.20;;;5.57;;
41885;SDS011;27567;43.084;25.616;2022-10-23T05:57:19;8.82;;;5.28;;
41885;SDS011;27567;43.084;25.616;2022-10-23T06:00:03;9.95;;;5.10;;
41885;SDS011;27567;43.084;25.616;2022-10-23T06:02:48;11.05;;;5.38;;
41885;SDS011;27567;43.084;25.616;2022-10-23T06:05:32;9.73;;;5.10;;
41885;SDS011;27567;43.084;25.616;2022-10-23T06:08:16;9.45;;;4.88;;
41885;SDS011;27567;43.084;25.616;2022-10-23T06:11:05;16.85;;;5.05;;
41885;SDS011;27567;43.084;25.616;2022-10-23T06:13:53;13.38;;;6.10;;
41885;SDS011;27567;43.084;25.616;2022-10-23T06:16:37;10.27;;;5.50;;
41885;SDS011;27567;43.084;25.616;2022-10-23T06:19:21;14.95;;;5.00;;
41885;SDS011;27567;43.084;25.616;2022-10-23T06:22:05;12.38;;;4.90;;
41885;SDS011;27567;43.084;25.616;2022-10-23T06:24:49;12.25;;;5.38;;
41885;SDS011;27567;43.084;25.616;2022-10-23T06:27:33;7.75;;;4.47;;
41885;SDS011;27567;43.084;25.616;2022-10-23T06:30:17;8.10;;;4.97;;
41885;SDS011;27567;43.084;25.616;2022-10-23T06:33:02;9.73;;;5.38;;
41885;SDS011;27567;43.084;25.616;2022-10-23T06:35:46;10.68;;;5.07;;
41885;SDS011;27567;43.084;25.616;2022-10-23T06:38:31;6.57;;;4.32;;
41885;SDS011;27567;43.084;25.616;2022-10-23T06:41:20;12.18;;;5.00;;
41885;SDS011;27567;43.084;25.616;2022-10-23T06:44:05;10.05;;;4.68;;
41885;SDS011;27567;43.084;25.616;2022-10-23T06:46:49;7.85;;;4.78;;
41885;SDS011;27567;43.084;25.616;2022-10-23T06:49:34;8.20;;;4.10;;
41885;SDS011;27567;43.084;25.616;2022-10-23T06:52:18;7.47;;;4.63;;
41885;SDS011;27567;43.084;25.616;2022-10-23T06:55:02;9.18;;;4.07;;
41885;SDS011;27567;43.084;25.616;2022-10-23T06:57:47;8.63;;;4.55;;
41885;SDS011;27567;43.084;25.616;2022-10-23T07:00:31;11.75;;;3.78;;
41885;SDS011;27567;43.084;25.616;2022-10-23T07:03:15;6.90;;;3.95;;
41885;SDS011;27567;43.084;25.616;2022-10-23T07:06:00;5.72;;;3.42;;
41885;SDS011;27567;43.084;25.616;2022-10-23T07:08:45;8.13;;;4.13;;
41885;SDS011;27567;43.084;25.616;2022-10-23T07:11:29;7.32;;;3.42;;
41885;SDS011;27567;43.084;25.616;2022-10-23T07:14:13;6.25;;;3.33;;
41885;SDS011;27567;43.084;25.616;2022-10-23T07:16:58;8.10;;;3.03;;
41885;SDS011;27567;43.084;25.616;2022-10-23T07:19:41;9.30;;;2.90;;
41885;SDS011;27567;43.084;25.616;2022-10-23T07:22:26;7.75;;;2.42;;
41885;SDS011;27567;43.084;25.616;2022-10-23T07:25:09;4.32;;;2.85;;
41885;SDS011;27567;43.084;25.616;2022-10-23T07:27:53;5.95;;;3.42;;
41885;SDS011;27567;43.084;25.616;2022-10-23T07:30:39;5.78;;;2.38;;
41885;SDS011;27567;43.084;25.616;2022-10-23T07:33:24;4.82;;;2.38;;
41885;SDS011;27567;43.084;25.616;2022-10-23T07:36:08;3.92;;;2.13;;
41885;SDS011;27567;43.084;25.616;2022-10-23T07:38:53;7.57;;;2.33;;
41885;SDS011;27567;43.084;25.616;2022-10-23T07:41:37;11.32;;;2.35;;
41885;SDS011;27567;43.084;25.616;2022-10-23T07:44:21;9.05;;;2.17;;
41885;SDS011;27567;43.084;25.616;2022-10-23T07:47:05;5.28;;;1.83;;
41885;SDS011;27567;43.084;25.616;2022-10-23T07:49:49;4.50;;;1.77;;
41885;SDS011;27567;43.084;25.616;2022-10-23T07:52:36;4.93;;;1.90;;
41885;SDS011;27567;43.084;25.616;2022-10-23T07:55:20;5.47;;;1.98;;
41885;SDS011;27567;43.084;25.616;2022-10-23T07:58:04;4.15;;;2.40;;
41885;SDS011;27567;43.084;25.616;2022-10-23T08:00:50;4.95;;;2.20;;
41885;SDS011;27567;43.084;25.616;2022-10-23T08:03:41;4.50;;;2.55;;
41885;SDS011;27567;43.084;25.616;2022-10-23T08:06:25;6.60;;;2.00;;
41885;SDS011;27567;43.084;25.616;2022-10-23T08:09:09;2.97;;;1.95;;
41885;SDS011;27567;43.084;25.616;2022-10-23T08:11:53;3.88;;;1.75;;
41885;SDS011;27567;43.084;25.616;2022-10-23T08:14:37;6.03;;;2.22;;
41885;SDS011;27567;43.084;25.616;2022-10-23T08:17:22;3.60;;;1.80;;
41885;SDS011;27567;43.084;25.616;2022-10-23T08:20:06;4.20;;;2.00;;
41885;SDS011;27567;43.084;25.616;2022-10-23T08:22:50;4.30;;;1.65;;
41885;SDS011;27567;43.084;25.616;2022-10-23T08:25:36;7.75;;;1.65;;
41885;SDS011;27567;43.084;25.616;2022-10-23T08:28:20;4.18;;;1.88;;
41885;SDS011;27567;43.084;25.616;2022-10-23T08:31:07;5.40;;;2.30;;
41885;SDS011;27567;43.084;25.616;2022-10-23T08:33:53;5.07;;;1.70;;
41885;SDS011;27567;43.084;25.616;2022-10-23T08:36:19;2.58;;;1.33;;
41885;SDS011;27567;43.084;25.616;2022-10-23T08:38:49;2.20;;;1.60;;
41885;SDS011;27567;43.084;25.616;2022-10-23T08:41:28;5.60;;;1.40;;
41885;SDS011;27567;43.084;25.616;2022-10-23T08:47:11;2.65;;;1.60;;
41885;SDS011;27567;43.084;25.616;2022-10-23T08:49:46;28.85;;;2.15;;
41885;SDS011;27567;43.084;25.616;2022-10-23T08:52:20;4.47;;;0.93;;
41885;SDS011;27567;43.084;25.616;2022-10-23T08:55:26;2.78;;;1.40;;
41885;SDS011;27567;43.084;25.616;2022-10-23T08:58:09;7.30;;;1.67;;
41885;SDS011;27567;43.084;25.616;2022-10-23T09:00:40;6.40;;;1.38;;
41885;SDS011;27567;43.084;25.616;2022-10-23T09:03:08;2.78;;;1.00;;
41885;SDS011;27567;43.084;25.616;2022-10-23T09:05:38;3.35;;;0.95;;
41885;SDS011;27567;43.084;25.616;2022-10-23T09:08:22;5.55;;;1.27;;
41885;SDS011;27567;43.084;25.616;2022-10-23T09:13:49;2.20;;;1.00;;
41885;SDS011;27567;43.084;25.616;2022-10-23T09:19:10;5.13;;;1.90;;
41885;SDS011;27567;43.084;25.616;2022-10-23T09:21:40;1.60;;;0.85;;
41885;SDS011;27567;43.084;25.616;2022-10-23T09:24:18;3.05;;;1.00;;
41885;SDS011;27567;43.084;25.616;2022-10-23T09:26:46;1.95;;;1.02;;
41885;SDS011;27567;43.084;25.616;2022-10-23T09:31:50;8.10;;;1.10;;
41885;SDS011;27567;43.084;25.616;2022-10-23T09:34:21;4.30;;;1.08;;
41885;SDS011;27567;43.084;25.616;2022-10-23T09:36:49;4.85;;;0.73;;
41885;SDS011;27567;43.084;25.616;2022-10-23T09:39:21;1.95;;;0.93;;
41885;SDS011;27567;43.084;25.616;2022-10-23T09:41:54;5.32;;;0.75;;
41885;SDS011;27567;43.084;25.616;2022-10-23T09:44:21;4.45;;;0.98;;
41885;SDS011;27567;43.084;25.616;2022-10-23T09:46:49;3.45;;;0.93;;
41885;SDS011;27567;43.084;25.616;2022-10-23T09:49:24;2.42;;;0.82;;
41885;SDS011;27567;43.084;25.616;2022-10-23T09:54:50;3.53;;;1.05;;
41885;SDS011;27567;43.084;25.616;2022-10-23T09:59:54;5.22;;;1.00;;
41885;SDS011;27567;43.084;25.616;2022-10-23T10:02:33;1.85;;;0.77;;
41885;SDS011;27567;43.084;25.616;2022-10-23T10:07:52;9.68;;;1.23;;
41885;SDS011;27567;43.084;25.616;2022-10-23T10:10:20;2.25;;;0.90;;
41885;SDS011;27567;43.084;25.616;2022-10-23T10:15:42;3.53;;;0.90;;
41885;SDS011;27567;43.084;25.616;2022-10-23T10:21:23;2.47;;;1.10;;
41885;SDS011;27567;43.084;25.616;2022-10-23T10:24:14;4.25;;;0.90;;
41885;SDS011;27567;43.084;25.616;2022-10-23T10:38:50;0.80;;;0.75;;
41885;SDS011;27567;43.084;25.616;2022-10-23T10:44:45;3.03;;;0.70;;
41885;SDS011;27567;43.084;25.616;2022-10-23T10:47:40;5.85;;;1.20;;
41885;SDS011;27567;43.084;25.616;2022-10-23T10:56:30;1.63;;;0.80;;
41885;SDS011;27567;43.084;25.616;2022-10-23T11:08:13;2.03;;;0.80;;
41885;SDS011;27567;43.084;25.616;2022-10-23T11:11:09;2.00;;;1.05;;
41885;SDS011;27567;43.084;25.616;2022-10-23T11:13:58;1.15;;;0.90;;
41885;SDS011;27567;43.084;25.616;2022-10-23T11:16:44;1.58;;;0.80;;
41885;SDS011;27567;43.084;25.616;2022-10-23T11:31:37;3.60;;;0.95;;
41885;SDS011;27567;43.084;25.616;2022-10-23T11:37:37;1.40;;;1.08;;
41885;SDS011;27567;43.084;25.616;2022-10-23T11:40:22;2.15;;;1.00;;
41885;SDS011;27567;43.084;25.616;2022-10-23T11:43:07;2.65;;;1.55;;
41885;SDS011;27567;43.084;25.616;2022-10-23T11:45:52;1.67;;;0.90;;
41885;SDS011;27567;43.084;25.616;2022-10-23T11:48:37;6.85;;;1.60;;
41885;SDS011;27567;43.084;25.616;2022-10-23T11:54:28;2.65;;;0.80;;
41885;SDS011;27567;43.084;25.616;2022-10-23T11:57:13;3.85;;;0.80;;
41885;SDS011;27567;43.084;25.616;2022-10-23T11:59:59;4.35;;;0.90;;
41885;SDS011;27567;43.084;25.616;2022-10-23T12:02:48;3.92;;;1.08;;
41885;SDS011;27567;43.084;25.616;2022-10-23T12:05:35;4.57;;;1.00;;
41885;SDS011;27567;43.084;25.616;2022-10-23T12:08:25;1.13;;;0.88;;
41885;SDS011;27567;43.084;25.616;2022-10-23T12:11:25;5.57;;;1.27;;
41885;SDS011;27567;43.084;25.616;2022-10-23T12:14:27;6.82;;;1.42;;
41885;SDS011;27567;43.084;25.616;2022-10-23T12:41:12;3.25;;;1.10;;
41885;SDS011;27567;43.084;25.616;2022-10-23T12:43:59;2.63;;;1.10;;
41885;SDS011;27567;43.084;25.616;2022-10-23T12:46:46;2.58;;;0.90;;
41885;SDS011;27567;43.084;25.616;2022-10-23T12:49:31;1.65;;;1.00;;
41885;SDS011;27567;43.084;25.616;2022-10-23T12:52:18;3.97;;;1.08;;
41885;SDS011;27567;43.084;25.616;2022-10-23T12:55:13;1.30;;;1.00;;
41885;SDS011;27567;43.084;25.616;2022-10-23T12:57:57;1.58;;;1.13;;
41885;SDS011;27567;43.084;25.616;2022-10-23T13:00:48;2.63;;;1.17;;
41885;SDS011;27567;43.084;25.616;2022-10-23T13:03:33;4.25;;;1.20;;
41885;SDS011;27567;43.084;25.616;2022-10-23T13:06:18;4.63;;;1.42;;
41885;SDS011;27567;43.084;25.616;2022-10-23T13:09:02;3.30;;;1.08;;
41885;SDS011;27567;43.084;25.616;2022-10-23T13:11:47;1.73;;;0.95;;
41885;SDS011;27567;43.084;25.616;2022-10-23T13:14:13;3.35;;;1.20;;
41885;SDS011;27567;43.084;25.616;2022-10-23T13:17:00;2.22;;;1.33;;
41885;SDS011;27567;43.084;25.616;2022-10-23T13:19:27;3.70;;;1.00;;
41885;SDS011;27567;43.084;25.616;2022-10-23T13:21:52;6.35;;;1.08;;
41885;SDS011;27567;43.084;25.616;2022-10-23T13:24:18;3.60;;;1.20;;
41885;SDS011;27567;43.084;25.616;2022-10-23T13:26:46;3.85;;;1.00;;
41885;SDS011;27567;43.084;25.616;2022-10-23T13:29:21;3.47;;;1.10;;
41885;SDS011;27567;43.084;25.616;2022-10-23T13:31:55;3.72;;;0.90;;
41885;SDS011;27567;43.084;25.616;2022-10-23T13:36:50;2.80;;;1.40;;
41885;SDS011;27567;43.084;25.616;2022-10-23T13:39:23;2.90;;;1.17;;
41885;SDS011;27567;43.084;25.616;2022-10-23T13:41:50;10.38;;;1.40;;
41885;SDS011;27567;43.084;25.616;2022-10-23T13:44:17;5.72;;;1.10;;
41885;SDS011;27567;43.084;25.616;2022-10-23T13:46:44;1.15;;;1.05;;
41885;SDS011;27567;43.084;25.616;2022-10-23T13:49:10;4.35;;;1.10;;
41885;SDS011;27567;43.084;25.616;2022-10-23T13:51:39;2.25;;;1.38;;
41885;SDS011;27567;43.084;25.616;2022-10-23T13:54:13;3.50;;;1.58;;
41885;SDS011;27567;43.084;25.616;2022-10-23T13:56:40;3.00;;;1.00;;
41885;SDS011;27567;43.084;25.616;2022-10-23T13:59:05;2.63;;;1.30;;
41885;SDS011;27567;43.084;25.616;2022-10-23T14:01:32;3.60;;;1.45;;
41885;SDS011;27567;43.084;25.616;2022-10-23T14:04:02;6.22;;;1.35;;
41885;SDS011;27567;43.084;25.616;2022-10-23T14:06:29;4.60;;;1.50;;
41885;SDS011;27567;43.084;25.616;2022-10-23T14:08:55;4.43;;;1.40;;
41885;SDS011;27567;43.084;25.616;2022-10-23T14:11:21;3.17;;;1.17;;
41885;SDS011;27567;43.084;25.616;2022-10-23T14:13:47;1.23;;;1.10;;
41885;SDS011;27567;43.084;25.616;2022-10-23T14:16:14;3.03;;;2.17;;
41885;SDS011;27567;43.084;25.616;2022-10-23T14:18:41;1.73;;;1.23;;
41885;SDS011;27567;43.084;25.616;2022-10-23T14:21:07;8.93;;;1.40;;
41885;SDS011;27567;43.084;25.616;2022-10-23T14:23:34;3.05;;;1.65;;
41885;SDS011;27567;43.084;25.616;2022-10-23T14:26:03;2.90;;;1.25;;
41885;SDS011;27567;43.084;25.616;2022-10-23T14:28:31;3.65;;;1.13;;
41885;SDS011;27567;43.084;25.616;2022-10-23T14:30:57;1.48;;;1.27;;
41885;SDS011;27567;43.084;25.616;2022-10-23T14:33:27;2.33;;;1.20;;
41885;SDS011;27567;43.084;25.616;2022-10-23T14:35:52;4.93;;;1.48;;
41885;SDS011;27567;43.084;25.616;2022-10-23T14:38:18;4.72;;;1.30;;
41885;SDS011;27567;43.084;25.616;2022-10-23T14:40:43;4.68;;;1.40;;
41885;SDS011;27567;43.084;25.616;2022-10-23T14:43:09;3.15;;;1.70;;
41885;SDS011;27567;43.084;25.616;2022-10-23T14:45:34;3.17;;;1.55;;
41885;SDS011;27567;43.084;25.616;2022-10-23T14:48:00;3.53;;;1.20;;
41885;SDS011;27567;43.084;25.616;2022-10-23T14:50:26;6.40;;;1.65;;
41885;SDS011;27567;43.084;25.616;2022-10-23T14:52:52;4.32;;;1.30;;
41885;SDS011;27567;43.084;25.616;2022-10-23T14:55:21;4.45;;;1.35;;
41885;SDS011;27567;43.084;25.616;2022-10-23T14:57:47;2.28;;;1.42;;
41885;SDS011;27567;43.084;25.616;2022-10-23T15:00:12;4.38;;;1.27;;
41885;SDS011;27567;43.084;25.616;2022-10-23T15:02:39;2.60;;;1.75;;
41885;SDS011;27567;43.084;25.616;2022-10-23T15:05:04;4.18;;;1.92;;
41885;SDS011;27567;43.084;25.616;2022-10-23T15:07:30;1.83;;;1.20;;
41885;SDS011;27567;43.084;25.616;2022-10-23T15:09:56;2.55;;;1.58;;
41885;SDS011;27567;43.084;25.616;2022-10-23T15:12:21;4.90;;;1.55;;
41885;SDS011;27567;43.084;25.616;2022-10-23T15:14:48;5.00;;;1.80;;
41885;SDS011;27567;43.084;25.616;2022-10-23T15:17:13;5.60;;;1.58;;
41885;SDS011;27567;43.084;25.616;2022-10-23T15:19:39;3.40;;;1.40;;
41885;SDS011;27567;43.084;25.616;2022-10-23T15:22:04;2.75;;;1.30;;
41885;SDS011;27567;43.084;25.616;2022-10-23T15:24:30;2.95;;;1.58;;
41885;SDS011;27567;43.084;25.616;2022-10-23T15:26:56;6.68;;;1.50;;
41885;SDS011;27567;43.084;25.616;2022-10-23T15:29:21;4.88;;;1.30;;
41885;SDS011;27567;43.084;25.616;2022-10-23T15:31:54;3.20;;;1.20;;
41885;SDS011;27567;43.084;25.616;2022-10-23T15:34:22;2.15;;;1.48;;
41885;SDS011;27567;43.084;25.616;2022-10-23T15:36:49;4.85;;;1.48;;
41885;SDS011;27567;43.084;25.616;2022-10-23T15:39:17;2.47;;;1.25;;
41885;SDS011;27567;43.084;25.616;2022-10-23T15:42:03;1.65;;;1.42;;
41885;SDS011;27567;43.084;25.616;2022-10-23T15:44:49;3.22;;;1.20;;
41885;SDS011;27567;43.084;25.616;2022-10-23T15:47:33;2.65;;;1.60;;
41885;SDS011;27567;43.084;25.616;2022-10-23T15:50:17;7.65;;;2.08;;
41885;SDS011;27567;43.084;25.616;2022-10-23T15:53:01;3.58;;;1.42;;
41885;SDS011;27567;43.084;25.616;2022-10-23T15:55:45;4.05;;;1.90;;
41885;SDS011;27567;43.084;25.616;2022-10-23T15:58:29;2.65;;;1.60;;
41885;SDS011;27567;43.084;25.616;2022-10-23T16:01:13;2.97;;;1.40;;
41885;SDS011;27567;43.084;25.616;2022-10-23T16:03:57;5.75;;;1.58;;
41885;SDS011;27567;43.084;25.616;2022-10-23T16:06:42;4.03;;;1.45;;
41885;SDS011;27567;43.084;25.616;2022-10-23T16:09:26;2.85;;;1.50;;
41885;SDS011;27567;43.084;25.616;2022-10-23T16:12:10;3.80;;;1.40;;
41885;SDS011;27567;43.084;25.616;2022-10-23T16:14:54;4.90;;;2.00;;
41885;SDS011;27567;43.084;25.616;2022-10-23T16:17:38;4.22;;;1.50;;
41885;SDS011;27567;43.084;25.616;2022-10-23T16:20:22;4.10;;;1.75;;
41885;SDS011;27567;43.084;25.616;2022-10-23T16:23:07;7.22;;;2.08;;
41885;SDS011;27567;43.084;25.616;2022-10-23T16:25:51;4.47;;;1.35;;
41885;SDS011;27567;43.084;25.616;2022-10-23T16:28:35;2.55;;;1.45;;
41885;SDS011;27567;43.084;25.616;2022-10-23T16:31:21;2.75;;;1.60;;
41885;SDS011;27567;43.084;25.616;2022-10-23T16:34:06;5.53;;;1.67;;
41885;SDS011;27567;43.084;25.616;2022-10-23T16:36:50;5.90;;;1.83;;
41885;SDS011;27567;43.084;25.616;2022-10-23T16:39:35;3.20;;;1.45;;
41885;SDS011;27567;43.084;25.616;2022-10-23T16:42:19;1.77;;;1.40;;
41885;SDS011;27567;43.084;25.616;2022-10-23T16:45:03;2.65;;;1.65;;
41885;SDS011;27567;43.084;25.616;2022-10-23T16:47:48;3.55;;;1.70;;
41885;SDS011;27567;43.084;25.616;2022-10-23T16:50:32;2.40;;;1.70;;
41885;SDS011;27567;43.084;25.616;2022-10-23T16:53:16;2.00;;;1.48;;
41885;SDS011;27567;43.084;25.616;2022-10-23T16:56:01;6.55;;;2.20;;
41885;SDS011;27567;43.084;25.616;2022-10-23T16:58:50;5.25;;;1.48;;
41885;SDS011;27567;43.084;25.616;2022-10-23T17:01:34;2.67;;;1.65;;
41885;SDS011;27567;43.084;25.616;2022-10-23T17:04:18;3.97;;;1.40;;
41885;SDS011;27567;43.084;25.616;2022-10-23T17:07:03;5.68;;;1.50;;
41885;SDS011;27567;43.084;25.616;2022-10-23T17:09:47;3.33;;;1.50;;
41885;SDS011;27567;43.084;25.616;2022-10-23T17:12:31;6.32;;;2.45;;
41885;SDS011;27567;43.084;25.616;2022-10-23T17:15:16;5.05;;;1.35;;
41885;SDS011;27567;43.084;25.616;2022-10-23T17:18:00;2.05;;;1.27;;
41885;SDS011;27567;43.084;25.616;2022-10-23T17:20:26;4.28;;;1.77;;
41885;SDS011;27567;43.084;25.616;2022-10-23T17:22:51;4.38;;;1.90;;
41885;SDS011;27567;43.084;25.616;2022-10-23T17:25:17;4.60;;;1.65;;
41885;SDS011;27567;43.084;25.616;2022-10-23T17:27:44;6.55;;;2.22;;
41885;SDS011;27567;43.084;25.616;2022-10-23T17:30:10;8.25;;;2.63;;
41885;SDS011;27567;43.084;25.616;2022-10-23T17:32:36;11.85;;;5.00;;
41885;SDS011;27567;43.084;25.616;2022-10-23T17:35:03;24.13;;;7.28;;
41885;SDS011;27567;43.084;25.616;2022-10-23T17:37:29;26.10;;;8.65;;
41885;SDS011;27567;43.084;25.616;2022-10-23T17:39:57;13.90;;;7.05;;
41885;SDS011;27567;43.084;25.616;2022-10-23T17:42:26;16.73;;;7.63;;
41885;SDS011;27567;43.084;25.616;2022-10-23T17:44:52;16.92;;;6.95;;
41885;SDS011;27567;43.084;25.616;2022-10-23T17:47:18;12.85;;;6.30;;
41885;SDS011;27567;43.084;25.616;2022-10-23T17:49:43;14.07;;;5.72;;
41885;SDS011;27567;43.084;25.616;2022-10-23T17:52:09;8.57;;;4.20;;
41885;SDS011;27567;43.084;25.616;2022-10-23T17:54:38;10.70;;;3.83;;
41885;SDS011;27567;43.084;25.616;2022-10-23T17:57:04;8.55;;;2.63;;
41885;SDS011;27567;43.084;25.616;2022-10-23T17:59:29;7.13;;;3.45;;
41885;SDS011;27567;43.084;25.616;2022-10-23T18:01:55;7.07;;;3.05;;
41885;SDS011;27567;43.084;25.616;2022-10-23T18:04:22;7.90;;;3.45;;
41885;SDS011;27567;43.084;25.616;2022-10-23T18:06:49;21.02;;;8.55;;
41885;SDS011;27567;43.084;25.616;2022-10-23T18:09:16;15.85;;;7.80;;
41885;SDS011;27567;43.084;25.616;2022-10-23T18:11:43;16.40;;;7.07;;
41885;SDS011;27567;43.084;25.616;2022-10-23T18:14:10;20.65;;;7.65;;